Weather at Olympia Regional Airport

Public forecast

Using degrees Fahrenheit for public forecast. Weather courtesy of forecast.io.

Current aviation weather report (METAR) for Olympia Regional Airport

2024/07/20 18:54 (retrieved 37 minutes ago)

KOLM 201854Z 03005KT 10SM CLR 27/13 A3013 RMK AO2 SLP200 T02720133

Aviation forecast (TAF) for Olympia Regional Airport

2024/07/20 18:28 (retrieved 1 hour ago)

TAF KOLM 201726Z 2018/2118 35006KT P6SM SKC FM202200 03006KT P6SM SKC FM210900 19003KT P6SM SKC FM211200 21001KT P6SM SCT025